Time;durP1;ratioP1;P1;durP2;ratioP2;P2;SDS_P1;SDS_P2;PMS_P1;PMS_P2;Temp;Humidity;BMP_temperature;BMP_pressure;BME280_temperature;BME280_humidity;BME280_pressure;Samples;Min_cycle;Max_cycle;Signal;HPM_P1;HPM_P2
2022/04/07 00:01:29;;;;;;;;;;;12.40;99.90;;;;;;5033046;28;19924;-95
2022/04/07 00:03:57;;;;;;;;;;;12.40;99.90;;;;;;5032585;28;19909;-95
2022/04/07 00:06:22;;;;;;;;;;;12.40;99.90;;;;;;5032469;28;19963;-96
2022/04/07 00:08:49;;;;;;;;;;;12.40;99.90;;;;;;5031783;28;19909;-94
2022/04/07 00:11:15;;;;;;;;;;;12.40;99.90;;;;;;5031721;28;19963;-93
2022/04/07 00:13:41;;;;;;;;;;;12.30;99.90;;;;;;5031472;28;19909;-95
2022/04/07 00:16:07;;;;;;;;;;;12.40;99.90;;;;;;5032296;28;19909;-95
2022/04/07 00:18:33;;;;;;;;;;;12.40;99.90;;;;;;5032319;28;20266;-96
2022/04/07 00:21:00;;;;;;;;;;;12.40;99.90;;;;;;5031718;28;19971;-94
2022/04/07 00:23:25;;;;;;;;;;;12.40;99.90;;;;;;5033090;28;19935;-94
2022/04/07 00:25:51;;;;;;;;;;;12.40;99.90;;;;;;5032200;28;19956;-96
2022/04/07 00:28:17;;;;;;;;;;;12.40;99.90;;;;;;5032515;28;19913;-95
2022/04/07 00:30:43;;;;;;;;;;;12.40;99.90;;;;;;5031738;28;20258;-94
2022/04/07 00:33:09;;;;;;;;;;;12.40;99.90;;;;;;5031769;28;19909;-94
2022/04/07 00:35:36;;;;;;;;;;;12.40;99.90;;;;;;5032257;28;19955;-96
2022/04/07 00:38:02;;;;;;;;;;;12.40;99.90;;;;;;5031657;28;20263;-93
2022/04/07 00:40:28;;;;;;;;;;;12.50;99.90;;;;;;5031170;28;19918;-94
2022/04/07 00:42:53;;;;;;;;;;;12.40;99.90;;;;;;5031956;28;19917;-95
2022/04/07 00:45:20;;;;;;;;;;;12.40;99.90;;;;;;5032161;28;19940;-95
2022/04/07 00:47:46;;;;;;;;;;;12.40;99.90;;;;;;5034755;28;19921;-95
2022/04/07 00:50:12;;;;;;;;;;;12.40;99.90;;;;;;5032807;28;19991;-95
2022/04/07 00:52:51;;;;;;;;;;;12.40;99.90;;;;;;5032574;28;19909;-94
2022/04/07 00:55:16;;;;;;;;;;;12.40;99.90;;;;;;5032809;28;19912;-95
2022/04/07 00:57:43;;;;;;;;;;;12.40;99.90;;;;;;5032603;28;19909;-95
2022/04/07 01:00:10;;;;;;;;;;;12.50;99.90;;;;;;5032276;28;19924;-96
2022/04/07 01:02:36;;;;;;;;;;;12.50;99.90;;;;;;5031668;28;19909;-95
2022/04/07 01:05:02;;;;;;;;;;;12.50;99.90;;;;;;5032843;28;20034;-94
2022/04/07 01:07:28;;;;;;;;;;;12.50;99.90;;;;;;5033161;28;19910;-95
2022/04/07 01:09:53;;;;;;;;;;;12.50;99.90;;;;;;5032079;28;19971;-94
2022/04/07 01:12:19;;;;;;;;;;;12.40;99.90;;;;;;5031333;28;19915;-96
2022/04/07 01:14:55;;;;;;;;;;;12.50;99.90;;;;;;5031162;28;19909;-94
2022/04/07 01:17:20;;;;;;;;;;;12.50;99.90;;;;;;5031224;28;19917;-95
2022/04/07 01:19:46;;;;;;;;;;;12.50;99.90;;;;;;5032015;28;20088;-94
2022/04/07 01:22:12;;;;;;;;;;;12.50;99.90;;;;;;5031673;28;20377;-95
2022/04/07 01:24:38;;;;;;;;;;;12.50;99.90;;;;;;5031525;28;19913;-93
2022/04/07 01:27:04;;;;;;;;;;;12.50;99.90;;;;;;5033170;28;19940;-94
2022/04/07 01:29:30;;;;;;;;;;;12.50;99.90;;;;;;5032277;28;19996;-95
2022/04/07 01:31:55;;;;;;;;;;;12.50;99.90;;;;;;5031171;28;19945;-95
2022/04/07 01:34:21;;;;;;;;;;;12.50;99.90;;;;;;5030837;28;20041;-94
2022/04/07 01:36:48;;;;;;;;;;;12.40;99.90;;;;;;5031589;28;19916;-93
2022/04/07 01:39:15;;;;;;;;;;;12.40;99.90;;;;;;5030885;28;19952;-94
2022/04/07 01:41:41;;;;;;;;;;;12.40;99.90;;;;;;5030923;28;19921;-91
2022/04/07 01:44:07;;;;;;;;;;;12.40;99.90;;;;;;5030690;28;19909;-91
2022/04/07 01:46:33;;;;;;;;;;;12.40;99.90;;;;;;5030703;28;19963;-93
2022/04/07 01:48:59;;;;;;;;;;;12.40;99.90;;;;;;5030322;28;20005;-94
2022/04/07 01:51:26;;;;;;;;;;;12.40;99.90;;;;;;5030530;28;19909;-94
2022/04/07 01:53:51;;;;;;;;;;;12.40;99.90;;;;;;5031626;28;19967;-89
2022/04/07 01:56:20;;;;;;;;;;;12.30;99.90;;;;;;5029175;28;20396;-89
2022/04/07 01:58:47;;;;;;;;;;;12.30;99.90;;;;;;5031579;28;19917;-89
2022/04/07 02:01:13;;;;;;;;;;;12.20;99.90;;;;;;5034200;28;19947;-90
2022/04/07 02:03:40;;;;;;;;;;;12.10;99.90;;;;;;5032907;28;19909;-88
2022/04/07 02:06:18;;;;;;;;;;;12.10;99.90;;;;;;5034396;28;19916;-88
2022/04/07 02:08:44;;;;;;;;;;;12.10;99.90;;;;;;5033993;28;19909;-89
2022/04/07 02:11:10;;;;;;;;;;;12.10;99.90;;;;;;5033982;28;20262;-89
2022/04/07 02:13:38;;;;;;;;;;;12.10;99.90;;;;;;5033915;28;19917;-90
2022/04/07 02:16:04;;;;;;;;;;;12.10;99.90;;;;;;5034378;28;19945;-89
2022/04/07 02:18:30;;;;;;;;;;;12.10;99.90;;;;;;5034042;28;20004;-89
2022/04/07 02:20:55;;;;;;;;;;;12.10;99.90;;;;;;5033921;28;20008;-90
2022/04/07 02:23:21;;;;;;;;;;;12.10;99.90;;;;;;5033985;28;20202;-90
2022/04/07 02:25:47;;;;;;;;;;;12.10;99.90;;;;;;5032390;28;19916;-89
2022/04/07 02:28:12;;;;;;;;;;;12.10;99.90;;;;;;5033576;28;19988;-90
2022/04/07 02:30:38;;;;;;;;;;;12.10;99.90;;;;;;5033376;28;19963;-90
2022/04/07 02:33:03;;;;;;;;;;;12.10;99.90;;;;;;5033647;28;20266;-90
2022/04/07 02:35:29;;;;;;;;;;;12.10;99.90;;;;;;5032227;28;19967;-89
2022/04/07 02:37:54;;;;;;;;;;;12.10;99.90;;;;;;5033745;28;19917;-89
2022/04/07 02:40:20;;;;;;;;;;;12.20;99.90;;;;;;5032205;28;20121;-89
2022/04/07 02:42:45;;;;;;;;;;;12.20;99.90;;;;;;5033425;28;19936;-89
2022/04/07 02:45:11;;;;;;;;;;;12.20;99.90;;;;;;5033331;28;19909;-89
2022/04/07 02:47:39;;;;;;;;;;;12.20;99.90;;;;;;5033279;28;19928;-89
2022/04/07 02:50:05;;;;;;;;;;;12.20;99.90;;;;;;5033426;28;19909;-89
2022/04/07 02:52:32;;;;;;;;;;;12.20;99.90;;;;;;5033444;28;19920;-90
2022/04/07 02:54:58;;;;;;;;;;;12.20;99.90;;;;;;5033831;28;19916;-90
2022/04/07 02:57:24;;;;;;;;;;;12.20;99.90;;;;;;5033371;28;20278;-90
2022/04/07 02:59:50;;;;;;;;;;;12.20;99.90;;;;;;5033280;28;19917;-90
2022/04/07 03:02:16;;;;;;;;;;;12.20;99.90;;;;;;5031609;28;19916;-89
2022/04/07 03:04:41;;;;;;;;;;;12.20;99.90;;;;;;5031608;28;19916;-89
2022/04/07 03:07:07;;;;;;;;;;;12.20;99.90;;;;;;5033174;28;19915;-89
2022/04/07 03:09:32;;;;;;;;;;;12.20;99.90;;;;;;5031126;28;19995;-89
2022/04/07 03:11:58;;;;;;;;;;;12.20;99.90;;;;;;5032915;28;19909;-88
2022/04/07 03:14:27;;;;;;;;;;;12.20;99.90;;;;;;5031795;28;19939;-88
2022/04/07 03:16:52;;;;;;;;;;;12.20;99.90;;;;;;5032767;28;19963;-87
2022/04/07 03:19:19;;;;;;;;;;;12.20;99.90;;;;;;5032806;28;19909;-88
2022/04/07 03:21:45;;;;;;;;;;;12.20;99.90;;;;;;5032584;28;19963;-87
2022/04/07 03:24:11;;;;;;;;;;;12.20;99.90;;;;;;5032658;28;20345;-88
2022/04/07 03:26:37;;;;;;;;;;;12.20;99.90;;;;;;5032641;28;19917;-91
2022/04/07 03:29:02;;;;;;;;;;;12.20;99.90;;;;;;5032994;28;19990;-90
2022/04/07 03:31:28;;;;;;;;;;;12.20;99.90;;;;;;5031285;28;20381;-89
2022/04/07 03:33:53;;;;;;;;;;;12.20;99.90;;;;;;5032695;28;20361;-89
2022/04/07 03:36:19;;;;;;;;;;;12.20;99.90;;;;;;5032360;28;20389;-88
2022/04/07 03:38:45;;;;;;;;;;;12.20;99.90;;;;;;5031088;28;20399;-90
2022/04/07 03:41:14;;;;;;;;;;;12.10;99.90;;;;;;5032281;28;19948;-89
2022/04/07 03:43:39;;;;;;;;;;;12.10;99.90;;;;;;5032243;28;19909;-89
2022/04/07 03:46:05;;;;;;;;;;;12.20;99.90;;;;;;5032539;28;20308;-89
2022/04/07 03:48:30;;;;;;;;;;;12.20;99.90;;;;;;5032452;28;19925;-88
2022/04/07 03:50:56;;;;;;;;;;;12.20;99.90;;;;;;5032323;28;19968;-85
2022/04/07 03:53:22;;;;;;;;;;;12.20;99.90;;;;;;5032178;28;19915;-91
2022/04/07 03:55:47;;;;;;;;;;;12.10;99.90;;;;;;5030925;28;19909;-85
2022/04/07 03:58:13;;;;;;;;;;;12.10;99.90;;;;;;5031969;28;19916;-87
2022/04/07 04:00:38;;;;;;;;;;;12.10;99.90;;;;;;5030799;28;19923;-90
2022/04/07 04:03:04;;;;;;;;;;;12.10;99.90;;;;;;5030947;28;20346;-89
2022/04/07 04:05:29;;;;;;;;;;;12.10;99.90;;;;;;5032125;28;20353;-85
2022/04/07 04:07:56;;;;;;;;;;;12.10;99.90;;;;;;5031916;28;20458;-85
2022/04/07 04:10:23;;;;;;;;;;;12.10;99.90;;;;;;5032036;28;19909;-88
2022/04/07 04:12:49;;;;;;;;;;;12.10;99.90;;;;;;5031833;28;20332;-90
2022/04/07 04:15:14;;;;;;;;;;;12.10;99.90;;;;;;5032340;28;19935;-93
2022/04/07 04:17:41;;;;;;;;;;;12.10;99.90;;;;;;5031509;28;19909;-94
2022/04/07 04:20:06;;;;;;;;;;;12.10;99.90;;;;;;5030756;28;19917;-92
2022/04/07 04:22:33;;;;;;;;;;;12.10;99.90;;;;;;5029754;28;20280;-92
2022/04/07 04:24:59;;;;;;;;;;;12.10;99.90;;;;;;5030863;28;20020;-93
2022/04/07 04:27:24;;;;;;;;;;;12.10;99.90;;;;;;5031986;28;19936;-92
2022/04/07 04:29:50;;;;;;;;;;;12.10;99.90;;;;;;5030552;28;20109;-91
2022/04/07 04:32:15;;;;;;;;;;;12.00;99.90;;;;;;5031527;28;19909;-86
2022/04/07 04:34:41;;;;;;;;;;;12.00;99.90;;;;;;5031201;28;19920;-86
2022/04/07 04:37:07;;;;;;;;;;;12.00;99.90;;;;;;5031153;28;20008;-88
2022/04/07 04:39:32;;;;;;;;;;;12.00;99.90;;;;;;5029922;28;19975;-88
2022/04/07 04:41:58;;;;;;;;;;;12.00;99.90;;;;;;5030223;28;19916;-89
2022/04/07 04:44:23;;;;;;;;;;;12.00;99.90;;;;;;5030136;28;19956;-89
2022/04/07 04:46:49;;;;;;;;;;;12.00;99.90;;;;;;5031174;28;20000;-90
2022/04/07 04:49:14;;;;;;;;;;;12.00;99.90;;;;;;5032245;28;19921;-88
2022/04/07 04:51:40;;;;;;;;;;;12.00;99.90;;;;;;5031011;28;19963;-90
2022/04/07 04:54:05;;;;;;;;;;;12.00;99.90;;;;;;5031032;28;19915;-89
2022/04/07 04:56:31;;;;;;;;;;;12.10;99.90;;;;;;5030944;28;19920;-89
2022/04/07 04:58:57;;;;;;;;;;;12.10;99.90;;;;;;5029716;28;19909;-89
2022/04/07 05:01:25;;;;;;;;;;;12.10;99.90;;;;;;5031637;28;20420;-94
2022/04/07 05:04:01;;;;;;;;;;;12.10;99.90;;;;;;5032507;28;20301;-95
2022/04/07 05:06:35;;;;;;;;;;;12.10;99.90;;;;;;5031423;28;19920;-96
2022/04/07 05:09:00;;;;;;;;;;;12.10;99.90;;;;;;5025203;28;20052;-93
2022/04/07 05:11:26;;;;;;;;;;;12.10;99.90;;;;;;5020234;28;19937;-94
2022/04/07 05:13:52;;;;;;;;;;;12.10;99.90;;;;;;5021150;28;19919;-94
2022/04/07 05:16:18;;;;;;;;;;;12.10;99.90;;;;;;5021421;28;20396;-92
2022/04/07 05:18:48;;;;;;;;;;;12.00;99.90;;;;;;5019658;28;19909;-92
2022/04/07 05:21:14;;;;;;;;;;;12.10;99.90;;;;;;5017408;28;19917;-92
2022/04/07 05:23:40;;;;;;;;;;;12.10;99.90;;;;;;5015906;28;19944;-91
2022/04/07 05:26:06;;;;;;;;;;;12.10;99.90;;;;;;5013174;28;19914;-90
2022/04/07 05:28:31;;;;;;;;;;;12.10;99.90;;;;;;5015836;28;19913;-90
2022/04/07 05:30:57;;;;;;;;;;;12.10;99.90;;;;;;5015770;28;19960;-91
2022/04/07 05:33:22;;;;;;;;;;;12.10;99.90;;;;;;5015662;28;19917;-89
2022/04/07 05:35:48;;;;;;;;;;;12.10;99.90;;;;;;5023527;28;20064;-89
2022/04/07 05:38:14;;;;;;;;;;;12.10;99.90;;;;;;5020652;28;20136;-89
2022/04/07 05:40:39;;;;;;;;;;;12.10;99.90;;;;;;5018491;28;19964;-90
2022/04/07 05:43:05;;;;;;;;;;;12.10;99.90;;;;;;5016306;28;19910;-88
2022/04/07 05:45:31;;;;;;;;;;;12.10;99.90;;;;;;5017196;28;19940;-89
2022/04/07 05:47:56;;;;;;;;;;;12.10;99.90;;;;;;5019785;28;19921;-89
2022/04/07 05:50:22;;;;;;;;;;;12.10;99.90;;;;;;5016786;28;20157;-88
2022/04/07 05:52:48;;;;;;;;;;;12.10;99.90;;;;;;5017624;28;19917;-88
2022/04/07 05:55:13;;;;;;;;;;;12.10;99.90;;;;;;5014675;28;19910;-89
2022/04/07 05:57:39;;;;;;;;;;;12.10;99.90;;;;;;5021198;28;19909;-89
2022/04/07 06:00:10;;;;;;;;;;;12.10;99.90;;;;;;5022081;28;19923;-88
2022/04/07 06:02:36;;;;;;;;;;;12.10;99.90;;;;;;5024897;28;19905;-90
2022/04/07 06:05:02;;;;;;;;;;;12.10;99.90;;;;;;5022462;28;19913;-92
2022/04/07 06:07:27;;;;;;;;;;;12.10;99.90;;;;;;5025475;28;19905;-94
2022/04/07 06:09:55;;;;;;;;;;;12.00;99.90;;;;;;5024622;28;19905;-95
2022/04/07 06:12:21;;;;;;;;;;;12.00;99.90;;;;;;5023965;28;19906;-94
2022/04/07 06:14:46;;;;;;;;;;;11.90;99.90;;;;;;5021918;28;20000;-92
2022/04/07 06:17:12;;;;;;;;;;;11.90;99.90;;;;;;5018087;28;19909;-93
2022/04/07 06:19:38;;;;;;;;;;;11.90;99.90;;;;;;5014796;28;20286;-94
2022/04/07 06:22:05;;;;;;;;;;;11.90;99.90;;;;;;5014360;28;20029;-94
2022/04/07 06:24:30;;;;;;;;;;;11.80;99.90;;;;;;5012988;28;19932;-94
2022/04/07 06:26:56;;;;;;;;;;;11.80;99.90;;;;;;5014255;28;20252;-93
2022/04/07 06:29:22;;;;;;;;;;;11.90;99.90;;;;;;5012725;28;19935;-92
2022/04/07 06:31:50;;;;;;;;;;;11.90;99.90;;;;;;5011658;28;19910;-91
2022/04/07 06:34:16;;;;;;;;;;;11.80;99.90;;;;;;5013261;28;20000;-93
2022/04/07 06:36:41;;;;;;;;;;;11.90;99.90;;;;;;5015314;28;19953;-92
2022/04/07 06:39:07;;;;;;;;;;;11.90;99.90;;;;;;5013261;28;19909;-92
2022/04/07 06:41:33;;;;;;;;;;;11.90;99.90;;;;;;5013305;28;20414;-92
2022/04/07 06:43:59;;;;;;;;;;;11.90;99.90;;;;;;5011858;28;19916;-94
2022/04/07 06:46:25;;;;;;;;;;;11.90;99.90;;;;;;5012800;28;19913;-93
2022/04/07 06:48:59;;;;;;;;;;;11.80;99.90;;;;;;5013038;28;19933;-96
2022/04/07 06:51:28;;;;;;;;;;;11.90;99.90;;;;;;5013757;28;19910;-95
2022/04/07 06:53:59;;;;;;;;;;;11.90;99.90;;;;;;5013719;28;19910;-96
2022/04/07 06:56:24;;;;;;;;;;;11.80;99.90;;;;;;5013323;28;19909;-94
2022/04/07 06:58:50;;;;;;;;;;;11.90;99.90;;;;;;5012678;28;20263;-93
2022/04/07 07:01:16;;;;;;;;;;;11.90;99.90;;;;;;5012892;28;19971;-93
2022/04/07 07:03:41;;;;;;;;;;;11.90;99.90;;;;;;5013311;28;19910;-92
2022/04/07 07:06:09;;;;;;;;;;;11.90;99.90;;;;;;5013277;28;19909;-94
2022/04/07 07:08:40;;;;;;;;;;;11.90;99.90;;;;;;5013404;28;20004;-95
2022/04/07 07:11:34;;;;;;;;;;;12.00;99.90;;;;;;5013500;28;19952;-95
2022/04/07 07:14:28;;;;;;;;;;;12.00;99.90;;;;;;5013712;28;19910;-96
2022/04/07 07:16:53;;;;;;;;;;;11.90;99.90;;;;;;5013544;28;19917;-94
2022/04/07 07:19:28;;;;;;;;;;;11.90;99.90;;;;;;5012643;28;19910;-95
2022/04/07 07:22:04;;;;;;;;;;;11.90;99.90;;;;;;5012866;28;20290;-94
2022/04/07 07:24:30;;;;;;;;;;;11.90;99.90;;;;;;5012891;28;19909;-95
2022/04/07 07:27:19;;;;;;;;;;;11.90;99.90;;;;;;5012730;28;19916;-95
2022/04/07 07:29:55;;;;;;;;;;;12.00;99.90;;;;;;5012613;28;19910;-96
2022/04/07 07:32:21;;;;;;;;;;;11.90;99.90;;;;;;5012062;28;19952;-93
2022/04/07 07:34:47;;;;;;;;;;;12.00;99.90;;;;;;5012462;28;19953;-94
2022/04/07 07:37:16;;;;;;;;;;;12.00;99.90;;;;;;5012397;28;19914;-94
2022/04/07 07:39:41;;;;;;;;;;;12.00;99.90;;;;;;5017258;28;19913;-94
2022/04/07 07:42:07;;;;;;;;;;;12.00;99.90;;;;;;5013950;28;20374;-95
2022/04/07 07:44:33;;;;;;;;;;;12.00;99.90;;;;;;5012025;28;19910;-91
2022/04/07 07:46:58;;;;;;;;;;;12.00;99.90;;;;;;5011441;28;20363;-94
2022/04/07 07:49:24;;;;;;;;;;;12.00;99.90;;;;;;5011689;28;19922;-95
2022/04/07 07:51:51;;;;;;;;;;;12.10;99.90;;;;;;5011966;28;19910;-95
2022/04/07 07:54:17;;;;;;;;;;;12.10;99.90;;;;;;5012165;28;19945;-94
2022/04/07 07:56:45;;;;;;;;;;;12.10;99.90;;;;;;5012213;28;20259;-93
2022/04/07 07:59:11;;;;;;;;;;;12.10;99.90;;;;;;5013157;28;19913;-94
2022/04/07 08:01:36;;;;;;;;;;;12.10;99.90;;;;;;5012147;28;20452;-94
2022/04/07 08:04:02;;;;;;;;;;;12.00;99.90;;;;;;5012153;28;19909;-94
2022/04/07 08:06:29;;;;;;;;;;;12.10;99.90;;;;;;5011825;28;19917;-93
2022/04/07 08:08:54;;;;;;;;;;;12.00;99.90;;;;;;5010966;28;19917;-92
2022/04/07 08:11:20;;;;;;;;;;;12.10;99.90;;;;;;5011300;28;20318;-95
2022/04/07 08:13:45;;;;;;;;;;;12.10;99.90;;;;;;5011257;28;19949;-93
2022/04/07 08:16:11;;;;;;;;;;;12.10;99.90;;;;;;5011481;28;19921;-93
2022/04/07 08:18:36;;;;;;;;;;;12.10;99.90;;;;;;5011518;28;20327;-94
2022/04/07 08:21:02;;;;;;;;;;;12.10;99.90;;;;;;5012456;28;19940;-93
2022/04/07 08:23:28;;;;;;;;;;;12.10;99.90;;;;;;5011589;28;19909;-94
2022/04/07 08:25:53;;;;;;;;;;;12.10;99.90;;;;;;5010981;28;19909;-93
2022/04/07 08:28:19;;;;;;;;;;;12.10;99.90;;;;;;5010723;28;20308;-92
2022/04/07 08:30:44;;;;;;;;;;;12.10;99.90;;;;;;5010916;28;19940;-93
2022/04/07 08:33:10;;;;;;;;;;;12.10;99.90;;;;;;5010874;28;19909;-92
2022/04/07 08:35:35;;;;;;;;;;;12.10;99.90;;;;;;5012100;28;19910;-94
2022/04/07 08:38:01;;;;;;;;;;;12.20;99.90;;;;;;5011387;28;19936;-96
2022/04/07 08:40:27;;;;;;;;;;;12.20;99.90;;;;;;5011212;28;19917;-92
2022/04/07 08:42:53;;;;;;;;;;;12.20;99.90;;;;;;5011229;28;19940;-91
2022/04/07 08:45:23;;;;;;;;;;;12.20;99.90;;;;;;5011071;28;19909;-92
2022/04/07 08:47:49;;;;;;;;;;;12.20;99.90;;;;;;5010496;28;20406;-92
2022/04/07 09:03:37;;;;;;;;;;;12.40;99.90;;;;;;5012931;28;20271;-94
2022/04/07 09:06:36;;;;;;;;;;;12.40;99.90;;;;;;5011952;28;19917;-94
2022/04/07 09:09:32;;;;;;;;;;;12.30;99.90;;;;;;5013344;28;19973;-95
2022/04/07 09:12:00;;;;;;;;;;;12.40;99.90;;;;;;5013814;28;19913;-94
2022/04/07 09:18:01;;;;;;;;;;;12.40;99.90;;;;;;5011051;28;19996;-94
2022/04/07 09:20:25;;;;;;;;;;;12.40;99.90;;;;;;5011596;28;20320;-93
2022/04/07 09:23:01;;;;;;;;;;;12.40;99.90;;;;;;5011105;28;19919;-94
2022/04/07 09:25:26;;;;;;;;;;;12.30;99.90;;;;;;5010283;28;19910;-89
2022/04/07 09:27:53;;;;;;;;;;;12.30;99.90;;;;;;5011299;28;20255;-91
2022/04/07 09:30:20;;;;;;;;;;;12.30;99.90;;;;;;5010152;28;19917;-92
2022/04/07 09:32:45;;;;;;;;;;;12.30;99.90;;;;;;5010543;28;19909;-92
2022/04/07 09:35:12;;;;;;;;;;;12.30;99.90;;;;;;5010672;28;19921;-92
2022/04/07 09:37:46;;;;;;;;;;;12.30;99.90;;;;;;5010486;28;19910;-92
2022/04/07 09:40:12;;;;;;;;;;;12.30;99.90;;;;;;5010514;28;19922;-93
2022/04/07 09:42:40;;;;;;;;;;;12.40;99.90;;;;;;5010435;28;19909;-93
2022/04/07 09:45:11;;;;;;;;;;;12.40;99.90;;;;;;5010354;28;19961;-93
2022/04/07 09:47:42;;;;;;;;;;;12.40;99.90;;;;;;5010310;28;19960;-92
2022/04/07 09:50:18;;;;;;;;;;;12.40;99.90;;;;;;5010593;28;19922;-92
2022/04/07 09:52:54;;;;;;;;;;;12.50;99.90;;;;;;5010109;28;19913;-93
2022/04/07 09:55:20;;;;;;;;;;;12.40;99.90;;;;;;5010253;28;19910;-95
2022/04/07 09:57:46;;;;;;;;;;;12.50;99.90;;;;;;5010160;28;19914;-93
2022/04/07 10:00:11;;;;;;;;;;;12.50;99.90;;;;;;5010474;28;19944;-94
2022/04/07 10:02:37;;;;;;;;;;;12.50;99.90;;;;;;5011168;28;19909;-93
2022/04/07 10:05:03;;;;;;;;;;;12.50;99.90;;;;;;5010029;28;19910;-91
2022/04/07 10:07:29;;;;;;;;;;;12.40;99.90;;;;;;5010021;28;19910;-93
2022/04/07 10:09:55;;;;;;;;;;;12.50;99.90;;;;;;5009934;28;19910;-90
2022/04/07 10:12:21;;;;;;;;;;;12.40;99.90;;;;;;5009772;28;19963;-92
2022/04/07 10:14:48;;;;;;;;;;;12.40;99.90;;;;;;5012452;28;19909;-90
2022/04/07 10:17:14;;;;;;;;;;;12.40;99.90;;;;;;5010483;28;19918;-86
2022/04/07 10:19:48;;;;;;;;;;;12.40;99.90;;;;;;5015712;28;19917;-86
2022/04/07 10:22:33;;;;;;;;;;;12.40;99.90;;;;;;5032521;28;20282;-85
2022/04/07 10:25:02;;;;;;;;;;;12.40;99.90;;;;;;5033759;28;19909;-86
2022/04/07 10:27:33;;;;;;;;;;;12.30;99.90;;;;;;5033931;28;19916;-86
2022/04/07 10:30:05;;;;;;;;;;;12.40;99.90;;;;;;5033889;28;19913;-86
2022/04/07 10:32:41;;;;;;;;;;;12.30;99.90;;;;;;5032070;28;19909;-86
2022/04/07 10:35:06;;;;;;;;;;;12.30;99.90;;;;;;5027337;28;20294;-87
2022/04/07 10:37:41;;;;;;;;;;;12.40;99.90;;;;;;5013687;28;19916;-86
2022/04/07 10:40:25;;;;;;;;;;;12.40;99.90;;;;;;5025892;28;20361;-87
2022/04/07 10:43:10;;;;;;;;;;;12.40;99.90;;;;;;5033389;28;19913;-86
2022/04/07 10:45:39;;;;;;;;;;;12.40;99.90;;;;;;5033237;28;20285;-85
2022/04/07 10:48:22;;;;;;;;;;;12.40;99.90;;;;;;5033539;28;20066;-86
2022/04/07 10:50:51;;;;;;;;;;;12.40;99.90;;;;;;5031711;28;19909;-86
2022/04/07 10:53:20;;;;;;;;;;;12.40;99.90;;;;;;5033038;28;19916;-85
2022/04/07 10:55:52;;;;;;;;;;;12.50;99.90;;;;;;5033345;28;19909;-87
2022/04/07 10:58:19;;;;;;;;;;;12.50;99.90;;;;;;5034079;28;19975;-86
2022/04/07 11:00:44;;;;;;;;;;;12.60;99.90;;;;;;5031594;28;19917;-86
2022/04/07 11:03:14;;;;;;;;;;;12.50;99.90;;;;;;5033207;28;20388;-85
2022/04/07 11:06:12;;;;;;;;;;;12.60;99.90;;;;;;5033084;28;20340;-85
2022/04/07 11:08:38;;;;;;;;;;;12.60;99.90;;;;;;5020650;28;19909;-85
2022/04/07 11:11:03;;;;;;;;;;;12.60;99.90;;;;;;5031457;28;20384;-87
2022/04/07 11:13:50;;;;;;;;;;;12.60;99.90;;;;;;5033129;28;19916;-86
2022/04/07 11:16:16;;;;;;;;;;;12.60;99.90;;;;;;5032819;28;19917;-86
2022/04/07 11:19:00;;;;;;;;;;;12.60;99.90;;;;;;5032988;28;19909;-86
2022/04/07 11:21:25;;;;;;;;;;;12.60;99.90;;;;;;5031433;28;19951;-86
2022/04/07 11:23:52;;;;;;;;;;;12.60;99.90;;;;;;5032784;28;19914;-86
2022/04/07 11:26:19;;;;;;;;;;;12.60;99.90;;;;;;5031368;28;19917;-87
2022/04/07 11:29:17;;;;;;;;;;;12.60;99.90;;;;;;5031192;28;19909;-86
2022/04/07 11:31:50;;;;;;;;;;;12.50;99.90;;;;;;5019798;28;19916;-87
2022/04/07 11:34:34;;;;;;;;;;;12.50;99.90;;;;;;5032627;28;19909;-88
2022/04/07 11:37:01;;;;;;;;;;;12.60;99.90;;;;;;5032447;28;19954;-88
2022/04/07 11:39:26;;;;;;;;;;;12.60;99.90;;;;;;5031255;28;19909;-89
2022/04/07 11:41:52;;;;;;;;;;;12.70;99.90;;;;;;5032441;28;19921;-88
2022/04/07 11:44:20;;;;;;;;;;;12.70;99.90;;;;;;5031118;28;19909;-89
2022/04/07 11:46:46;;;;;;;;;;;12.80;99.90;;;;;;5032453;28;19970;-89
2022/04/07 11:49:13;;;;;;;;;;;12.80;99.90;;;;;;5032070;28;20449;-88
2022/04/07 11:51:39;;;;;;;;;;;12.90;99.90;;;;;;5031006;28;19913;-88
2022/04/07 11:54:05;;;;;;;;;;;12.90;99.90;;;;;;5032141;28;19988;-88
2022/04/07 11:56:36;;;;;;;;;;;12.80;99.90;;;;;;5032237;28;20396;-89
2022/04/07 11:59:01;;;;;;;;;;;12.90;99.90;;;;;;5032228;28;20000;-88
2022/04/07 12:01:28;;;;;;;;;;;12.90;99.90;;;;;;5030573;28;20003;-89
2022/04/07 12:03:54;;;;;;;;;;;12.90;99.90;;;;;;5032116;28;20003;-89
2022/04/07 12:06:20;;;;;;;;;;;12.90;99.90;;;;;;5032005;28;19909;-89
2022/04/07 12:08:46;;;;;;;;;;;12.80;99.90;;;;;;5031907;28;19909;-90
2022/04/07 12:11:11;;;;;;;;;;;12.90;99.90;;;;;;5030450;28;20016;-88
2022/04/07 12:13:37;;;;;;;;;;;12.90;99.90;;;;;;5031933;28;20025;-89
2022/04/07 12:16:03;;;;;;;;;;;12.90;99.90;;;;;;5031756;28;19963;-88
2022/04/07 12:18:30;;;;;;;;;;;12.90;99.90;;;;;;5030557;28;19913;-89
2022/04/07 12:21:03;;;;;;;;;;;12.90;99.90;;;;;;5031771;28;19917;-89
2022/04/07 12:23:29;;;;;;;;;;;12.90;99.90;;;;;;5031880;28;19951;-89
2022/04/07 12:25:59;;;;;;;;;;;13.00;99.90;;;;;;5032009;28;19944;-90
2022/04/07 12:28:32;;;;;;;;;;;13.00;99.90;;;;;;5031559;28;19913;-88
2022/04/07 12:30:58;;;;;;;;;;;13.00;99.90;;;;;;5031340;28;19959;-87
2022/04/07 12:33:43;;;;;;;;;;;13.00;99.90;;;;;;5031344;28;20278;-86
2022/04/07 12:36:27;;;;;;;;;;;13.00;99.90;;;;;;5030200;28;19909;-88
2022/04/07 12:38:59;;;;;;;;;;;13.10;99.90;;;;;;5031411;28;19983;-89
2022/04/07 12:41:34;;;;;;;;;;;13.10;99.90;;;;;;5031721;28;19917;-88
2022/04/07 12:44:00;;;;;;;;;;;13.10;99.90;;;;;;5030979;28;19909;-87
2022/04/07 12:46:41;;;;;;;;;;;13.10;99.90;;;;;;5031192;28;19909;-87
2022/04/07 12:49:07;;;;;;;;;;;13.10;99.90;;;;;;5030891;28;20297;-87
2022/04/07 12:51:37;;;;;;;;;;;13.20;99.90;;;;;;5030910;28;19909;-87
2022/04/07 12:54:06;;;;;;;;;;;13.20;99.90;;;;;;5031566;28;19915;-86
2022/04/07 12:56:32;;;;;;;;;;;13.30;99.90;;;;;;5031029;28;20259;-85
2022/04/07 12:59:03;;;;;;;;;;;13.30;99.90;;;;;;5031229;28;19932;-86
2022/04/07 13:01:31;;;;;;;;;;;13.30;99.90;;;;;;5028952;28;21599;-86
2022/04/07 13:03:57;;;;;;;;;;;13.30;99.90;;;;;;5031078;28;20296;-86
2022/04/07 13:06:23;;;;;;;;;;;13.40;99.90;;;;;;5030088;28;19960;-86
2022/04/07 13:08:49;;;;;;;;;;;13.40;99.90;;;;;;5031048;28;20070;-86
2022/04/07 13:11:31;;;;;;;;;;;13.50;99.90;;;;;;5030851;28;20073;-85
2022/04/07 13:13:56;;;;;;;;;;;13.50;99.90;;;;;;5030972;28;19909;-85
2022/04/07 13:16:22;;;;;;;;;;;13.50;99.90;;;;;;5030455;28;19955;-86
2022/04/07 13:18:47;;;;;;;;;;;13.50;99.90;;;;;;5030819;28;19913;-86
2022/04/07 13:21:15;;;;;;;;;;;13.60;99.90;;;;;;5030908;28;19917;-86
2022/04/07 13:23:40;;;;;;;;;;;13.50;99.90;;;;;;5030867;28;19909;-86
2022/04/07 13:26:06;;;;;;;;;;;13.60;99.90;;;;;;5031093;28;20004;-86
2022/04/07 13:28:31;;;;;;;;;;;13.60;99.90;;;;;;5030888;28;19945;-86
2022/04/07 13:30:57;;;;;;;;;;;13.60;99.90;;;;;;5030679;28;19952;-86
2022/04/07 13:33:23;;;;;;;;;;;13.70;99.90;;;;;;5030586;28;20378;-86
2022/04/07 13:35:51;;;;;;;;;;;13.70;99.90;;;;;;5029404;28;20409;-87
2022/04/07 13:38:17;;;;;;;;;;;13.80;99.90;;;;;;5029379;28;19948;-87
2022/04/07 13:40:42;;;;;;;;;;;13.80;99.90;;;;;;5029265;28;19942;-87
2022/04/07 13:43:08;;;;;;;;;;;13.80;99.90;;;;;;5030687;28;19909;-87
2022/04/07 13:45:34;;;;;;;;;;;13.70;99.90;;;;;;5030668;28;19909;-86
2022/04/07 13:47:59;;;;;;;;;;;13.80;99.90;;;;;;5028965;28;19909;-87
2022/04/07 13:50:25;;;;;;;;;;;13.80;99.90;;;;;;5030590;28;20377;-86
2022/04/07 13:52:50;;;;;;;;;;;13.90;99.90;;;;;;5030284;28;19913;-87
2022/04/07 13:55:16;;;;;;;;;;;13.80;99.90;;;;;;5033989;28;19910;-87
2022/04/07 13:57:41;;;;;;;;;;;13.70;99.90;;;;;;5034445;28;20365;-86
2022/04/07 14:00:07;;;;;;;;;;;13.60;99.90;;;;;;5034252;28;20000;-86
2022/04/07 14:02:33;;;;;;;;;;;13.60;99.90;;;;;;5034322;28;19909;-87
2022/04/07 14:04:58;;;;;;;;;;;13.60;99.90;;;;;;5034149;28;19920;-87
2022/04/07 14:07:24;;;;;;;;;;;13.50;99.90;;;;;;5034282;28;20432;-87
2022/04/07 14:09:50;;;;;;;;;;;13.50;99.90;;;;;;5034071;28;19909;-87
2022/04/07 14:12:15;;;;;;;;;;;13.60;99.90;;;;;;5032692;28;19996;-86
2022/04/07 14:14:43;;;;;;;;;;;13.50;99.90;;;;;;5034006;28;19940;-87
2022/04/07 14:17:09;;;;;;;;;;;13.50;99.90;;;;;;5033937;28;20453;-87
2022/04/07 14:19:34;;;;;;;;;;;13.60;99.90;;;;;;5033861;28;19952;-86
2022/04/07 14:22:02;;;;;;;;;;;13.60;99.90;;;;;;5033907;28;19918;-87
2022/04/07 14:24:29;;;;;;;;;;;13.70;99.90;;;;;;5034233;28;19914;-86
2022/04/07 14:26:55;;;;;;;;;;;13.70;99.90;;;;;;5033862;28;19909;-87
2022/04/07 14:29:21;;;;;;;;;;;13.60;99.90;;;;;;5032899;28;19916;-86
2022/04/07 14:31:46;;;;;;;;;;;13.50;99.90;;;;;;5033737;28;19913;-87
2022/04/07 14:34:12;;;;;;;;;;;13.60;99.90;;;;;;5033541;28;19913;-87
2022/04/07 14:36:38;;;;;;;;;;;13.70;99.90;;;;;;5032209;28;19909;-87